Time;durP1;ratioP1;P1;durP2;ratioP2;P2;SDS_P1;SDS_P2;PMS_P1;PMS_P2;Temp;Humidity;BMP_temperature;BMP_pressure;BME280_temperature;BME280_humidity;BME280_pressure;Samples;Min_cycle;Max_cycle;Signal;HPM_P1;HPM_P2
2022/03/29 00:01:58;;;;;;;60.75;27.85;;;13.10;99.90;;;;;;5067233;28;20172;-62
2022/03/29 00:04:24;;;;;;;58.00;28.63;;;13.10;99.90;;;;;;5042567;28;20169;-61
2022/03/29 00:06:50;;;;;;;62.15;28.92;;;13.00;99.90;;;;;;5070443;28;20180;-61
2022/03/29 00:09:16;;;;;;;63.95;29.17;;;13.10;99.90;;;;;;5071015;28;20250;-61
2022/03/29 00:11:43;;;;;;;61.78;29.55;;;13.00;99.90;;;;;;5071107;28;20195;-61
2022/03/29 00:14:09;;;;;;;58.13;28.98;;;12.90;99.90;;;;;;5058238;28;20173;-62
2022/03/29 00:16:35;;;;;;;59.95;29.25;;;12.90;99.90;;;;;;5051219;28;20644;-62
2022/03/29 00:19:01;;;;;;;62.63;29.02;;;12.90;99.90;;;;;;5037977;28;20272;-62
2022/03/29 00:21:27;;;;;;;59.97;28.02;;;12.80;99.90;;;;;;5070267;28;20238;-62
2022/03/29 00:23:53;;;;;;;64.03;29.17;;;13.10;99.90;;;;;;5070394;28;20199;-62
2022/03/29 00:26:19;;;;;;;61.55;28.23;;;12.80;99.90;;;;;;5069349;28;20176;-62
2022/03/29 00:28:45;;;;;;;64.00;28.77;;;12.70;99.90;;;;;;5068651;28;20261;-62
2022/03/29 00:31:12;;;;;;;62.63;28.35;;;12.70;99.90;;;;;;5053775;28;20344;-62
2022/03/29 00:33:38;;;;;;;66.20;30.27;;;12.70;99.90;;;;;;5045153;28;20176;-62
2022/03/29 00:36:04;;;;;;;65.28;29.65;;;12.70;99.90;;;;;;5069291;28;20168;-62
2022/03/29 00:38:30;;;;;;;56.45;28.60;;;12.60;99.90;;;;;;5051258;28;20200;-61
2022/03/29 00:40:57;;;;;;;71.22;31.70;;;12.60;99.90;;;;;;5050907;28;20173;-61
2022/03/29 00:43:24;;;;;;;76.00;29.85;;;12.60;99.90;;;;;;5064202;28;20180;-60
2022/03/29 00:45:50;;;;;;;75.43;30.50;;;12.60;99.90;;;;;;5068789;28;20487;-59
2022/03/29 00:48:16;;;;;;;57.92;29.10;;;12.60;99.90;;;;;;5060690;28;20219;-59
2022/03/29 00:50:43;;;;;;;59.42;30.05;;;12.60;99.90;;;;;;5050913;28;20169;-60
2022/03/29 00:53:09;;;;;;;60.72;29.33;;;12.60;99.90;;;;;;5059409;28;20230;-60
2022/03/29 00:55:37;;;;;;;60.40;29.40;;;12.70;99.90;;;;;;5070001;28;20661;-62
2022/03/29 00:58:04;;;;;;;54.72;27.55;;;12.70;99.90;;;;;;5058942;28;20662;-61
2022/03/29 01:00:36;;;;;;;63.03;28.50;;;12.70;99.90;;;;;;5066916;28;20219;-62
2022/03/29 01:03:03;;;;;;;56.80;27.42;;;12.80;99.90;;;;;;5056876;28;20204;-62
2022/03/29 01:05:29;;;;;;;58.53;28.17;;;12.70;99.90;;;;;;5067771;28;20189;-62
2022/03/29 01:07:56;;;;;;;58.50;28.17;;;12.70;99.90;;;;;;5068698;28;20203;-62
2022/03/29 01:10:22;;;;;;;62.77;29.17;;;12.80;99.90;;;;;;5070417;28;20172;-62
2022/03/29 01:13:07;;;;;;;59.92;28.40;;;12.80;99.90;;;;;;5066496;28;20852;-63
2022/03/29 01:15:36;;;;;;;62.67;28.38;;;12.70;99.90;;;;;;5065047;28;20269;-62
2022/03/29 01:18:02;;;;;;;63.13;28.45;;;12.80;99.90;;;;;;5070029;28;20177;-62
2022/03/29 01:20:31;;;;;;;60.75;28.63;;;12.80;99.90;;;;;;5069999;28;20203;-62
2022/03/29 01:23:00;;;;;;;53.17;27.02;;;12.80;99.90;;;;;;5049921;28;20168;-62
2022/03/29 01:25:37;;;;;;;71.32;32.65;;;12.60;99.90;;;;;;5060114;28;20172;-62
2022/03/29 01:28:05;;;;;;;82.60;36.80;;;12.60;99.90;;;;;;5068595;28;20638;-61
2022/03/29 01:30:31;;;;;;;68.38;30.48;;;12.60;99.90;;;;;;5035540;28;20180;-62
2022/03/29 01:33:00;;;;;;;63.03;29.27;;;12.60;99.90;;;;;;5069935;28;20181;-61
2022/03/29 01:35:26;;;;;;;62.22;30.02;;;12.60;99.90;;;;;;5069995;28;20215;-61
2022/03/29 01:37:53;;;;;;;64.63;29.88;;;12.50;99.90;;;;;;5065670;28;20230;-61
2022/03/29 01:40:21;;;;;;;75.22;33.53;;;12.40;99.90;;;;;;5035575;28;20177;-62
2022/03/29 01:42:48;;;;;;;69.07;32.22;;;12.30;99.90;;;;;;5067667;28;20169;-61
2022/03/29 01:45:15;;;;;;;67.38;31.63;;;12.40;99.90;;;;;;5065101;28;20184;-61
2022/03/29 01:47:41;;;;;;;62.45;30.60;;;12.40;99.90;;;;;;5064850;28;20204;-61
2022/03/29 01:50:08;;;;;;;71.68;30.83;;;12.30;99.90;;;;;;5073929;28;20192;-61
2022/03/29 01:52:42;;;;;;;60.80;29.00;;;12.30;99.90;;;;;;5055308;28;20188;-62
2022/03/29 01:55:16;;;;;;;51.28;28.70;;;12.30;99.90;;;;;;5068353;28;20173;-62
2022/03/29 01:57:42;;;;;;;66.73;29.63;;;12.30;99.90;;;;;;5065887;28;20184;-62
2022/03/29 02:02:57;;;;;;;61.85;28.30;;;12.40;99.90;;;;;;5073285;28;20685;-61
2022/03/29 02:05:24;;;;;;;54.85;28.02;;;12.40;99.90;;;;;;5056251;28;20252;-61
2022/03/29 02:07:50;;;;;;;56.03;27.55;;;12.40;99.90;;;;;;5072974;28;20296;-62
2022/03/29 02:10:20;;;;;;;55.33;27.65;;;12.40;99.90;;;;;;5073131;28;20184;-62
2022/03/29 02:12:47;;;;;;;56.15;27.55;;;12.40;99.90;;;;;;5072091;28;20811;-61
2022/03/29 02:15:13;;;;;;;49.47;26.23;;;12.30;99.90;;;;;;5055517;28;20220;-61
2022/03/29 02:17:41;;;;;;;55.97;27.83;;;12.30;99.90;;;;;;5063294;28;20180;-61
2022/03/29 02:20:07;;;;;;;54.38;29.30;;;12.30;99.90;;;;;;5072832;28;20259;-61
2022/03/29 02:22:33;;;;;;;52.63;27.77;;;12.30;99.90;;;;;;5068440;28;20238;-61
2022/03/29 02:24:59;;;;;;;51.22;27.30;;;12.40;99.90;;;;;;5053520;28;20189;-61
2022/03/29 02:27:25;;;;;;;56.08;28.50;;;12.40;99.90;;;;;;5058128;28;20189;-61
2022/03/29 02:29:51;;;;;;;57.57;29.47;;;12.50;99.90;;;;;;5062688;28;20199;-61
2022/03/29 02:32:17;;;;;;;59.93;29.20;;;12.40;99.90;;;;;;5070996;28;20255;-61
2022/03/29 02:34:45;;;;;;;53.67;27.85;;;12.40;99.90;;;;;;5055998;28;20227;-61
2022/03/29 02:37:12;;;;;;;53.47;28.40;;;12.30;99.90;;;;;;5071275;28;20508;-61
2022/03/29 02:39:38;;;;;;;50.10;25.27;;;12.30;99.90;;;;;;5073011;28;20212;-61
2022/03/29 02:42:04;;;;;;;53.38;27.52;;;12.20;99.90;;;;;;5072906;28;20179;-61
2022/03/29 02:44:30;;;;;;;51.15;27.75;;;12.20;99.90;;;;;;5072855;28;20255;-61
2022/03/29 02:46:56;;;;;;;59.10;27.92;;;12.20;99.90;;;;;;5072635;28;20180;-61
2022/03/29 02:49:24;;;;;;;53.53;28.42;;;12.20;99.90;;;;;;5070924;28;20747;-61
2022/03/29 02:51:51;;;;;;;58.92;29.67;;;12.30;99.90;;;;;;5072563;28;20183;-61
2022/03/29 02:54:17;;;;;;;60.90;31.23;;;12.30;99.90;;;;;;5071992;28;20670;-61
2022/03/29 02:56:43;;;;;;;70.55;32.25;;;12.30;99.90;;;;;;5072742;28;20283;-62
2022/03/29 02:59:09;;;;;;;52.30;28.27;;;12.30;99.90;;;;;;5056825;28;20195;-61
2022/03/29 03:01:35;;;;;;;55.03;28.05;;;12.20;99.90;;;;;;5052637;28;20587;-61
2022/03/29 03:04:02;;;;;;;51.25;27.77;;;12.10;99.90;;;;;;5052606;28;20177;-61
2022/03/29 03:06:27;;;;;;;53.22;28.50;;;12.10;99.90;;;;;;5052812;28;20174;-61
2022/03/29 03:08:54;;;;;;;54.90;28.20;;;12.10;99.90;;;;;;5052568;28;20312;-60
2022/03/29 03:11:20;;;;;;;57.07;29.00;;;12.10;99.90;;;;;;5052550;28;20169;-60
2022/03/29 03:13:46;;;;;;;49.35;25.92;;;12.10;99.90;;;;;;5040285;28;20177;-60
2022/03/29 03:16:12;;;;;;;51.63;27.00;;;12.00;99.90;;;;;;5072347;28;20702;-61
2022/03/29 03:18:38;;;;;;;46.47;26.45;;;12.00;99.90;;;;;;5072347;28;20187;-60
2022/03/29 03:21:04;;;;;;;57.88;27.58;;;11.90;99.90;;;;;;5066803;28;20166;-61
2022/03/29 03:23:30;;;;;;;49.37;27.93;;;11.90;99.90;;;;;;5052456;28;20256;-60
2022/03/29 03:25:56;;;;;;;54.03;28.37;;;11.90;99.90;;;;;;5052341;28;20185;-60
2022/03/29 03:28:22;;;;;;;48.60;27.88;;;11.90;99.90;;;;;;5051954;28;20212;-60
2022/03/29 03:30:48;;;;;;;56.23;29.13;;;11.80;99.90;;;;;;5065112;28;20237;-60
2022/03/29 03:33:14;;;;;;;48.07;27.20;;;11.80;99.90;;;;;;5060096;28;20259;-60
2022/03/29 03:35:39;;;;;;;49.28;27.48;;;11.80;99.90;;;;;;5072087;28;20575;-60
2022/03/29 03:38:07;;;;;;;55.90;28.70;;;11.80;99.90;;;;;;5056609;28;20188;-60
2022/03/29 03:40:33;;;;;;;55.17;29.87;;;11.80;99.90;;;;;;5049150;28;20188;-61
2022/03/29 03:43:00;;;;;;;54.97;28.37;;;11.80;99.90;;;;;;5033937;28;20185;-61
2022/03/29 03:45:26;;;;;;;54.30;27.60;;;11.80;99.90;;;;;;5051855;28;20649;-62
2022/03/29 03:47:52;;;;;;;50.93;28.67;;;11.80;99.90;;;;;;5070884;28;20192;-60
2022/03/29 03:50:17;;;;;;;58.55;30.30;;;11.70;99.90;;;;;;5069909;28;20222;-60
2022/03/29 03:52:43;;;;;;;54.27;30.10;;;11.70;99.90;;;;;;5071410;28;20160;-60
2022/03/29 03:55:09;;;;;;;57.00;29.50;;;11.70;99.90;;;;;;5065913;28;20667;-60
2022/03/29 03:57:35;;;;;;;57.20;30.27;;;11.70;99.90;;;;;;5060242;28;20176;-60
2022/03/29 04:00:01;;;;;;;54.17;29.67;;;11.70;99.90;;;;;;5071328;28;20184;-59
2022/03/29 04:02:27;;;;;;;54.28;28.80;;;11.60;99.90;;;;;;5052484;28;20268;-62
2022/03/29 04:04:53;;;;;;;60.88;30.67;;;11.60;99.90;;;;;;5055476;28;20181;-60
2022/03/29 04:07:19;;;;;;;59.47;32.17;;;11.60;99.90;;;;;;5039911;28;20264;-60
2022/03/29 04:09:45;;;;;;;56.17;31.53;;;11.60;99.90;;;;;;5053091;28;20213;-61
2022/03/29 04:12:11;;;;;;;60.88;32.90;;;11.60;99.90;;;;;;5069101;28;20173;-60
2022/03/29 04:14:37;;;;;;;61.20;31.75;;;11.60;99.90;;;;;;5033414;28;20213;-60
2022/03/29 04:17:08;;;;;;;57.43;31.63;;;11.60;99.90;;;;;;5051278;28;20180;-60
2022/03/29 04:19:34;;;;;;;51.77;29.87;;;11.50;99.90;;;;;;5070740;28;20183;-60
2022/03/29 04:21:59;;;;;;;54.70;30.40;;;11.50;99.90;;;;;;5070043;28;20280;-60
2022/03/29 04:24:25;;;;;;;58.13;31.13;;;11.50;99.90;;;;;;5051092;28;20330;-60
2022/03/29 04:26:51;;;;;;;55.75;29.45;;;11.50;99.90;;;;;;5051085;28;20193;-60
2022/03/29 04:29:17;;;;;;;56.88;30.95;;;11.60;99.90;;;;;;5050943;28;20307;-60
2022/03/29 04:31:43;;;;;;;60.50;31.47;;;11.50;99.90;;;;;;5055815;28;20249;-60
2022/03/29 04:34:09;;;;;;;55.23;30.10;;;11.60;99.90;;;;;;5055322;28;20239;-61
2022/03/29 04:36:35;;;;;;;53.93;30.67;;;11.50;99.90;;;;;;5057887;28;20188;-60
2022/03/29 04:39:01;;;;;;;61.03;31.13;;;11.40;99.90;;;;;;5070847;28;20169;-61
2022/03/29 04:41:27;;;;;;;56.53;30.83;;;11.40;99.90;;;;;;5070289;28;20204;-61
2022/03/29 04:43:54;;;;;;;58.40;31.83;;;11.40;99.90;;;;;;5069578;28;20637;-60
2022/03/29 04:46:20;;;;;;;58.63;30.87;;;11.30;99.90;;;;;;5070673;28;20177;-61
2022/03/29 04:48:46;;;;;;;64.77;31.30;;;11.40;99.90;;;;;;5068403;28;20208;-60
2022/03/29 04:51:12;;;;;;;61.10;30.87;;;11.30;99.90;;;;;;5070346;28;20181;-61
2022/03/29 04:53:38;;;;;;;61.23;30.93;;;11.30;99.90;;;;;;5070182;28;20600;-60
2022/03/29 04:56:05;;;;;;;55.50;30.50;;;11.30;99.90;;;;;;5060379;28;20544;-60
2022/03/29 04:58:31;;;;;;;54.23;31.13;;;11.30;99.90;;;;;;5065801;28;20185;-60
2022/03/29 05:00:58;;;;;;;64.07;32.67;;;11.30;99.90;;;;;;5060786;28;20631;-60
2022/03/29 05:03:24;;;;;;;60.47;31.10;;;11.30;99.90;;;;;;5063327;28;20184;-60
2022/03/29 05:05:50;;;;;;;56.93;31.20;;;11.20;99.90;;;;;;5070565;28;20564;-60
2022/03/29 05:08:16;;;;;;;56.80;31.73;;;11.20;99.90;;;;;;5064926;28;20288;-60
2022/03/29 05:10:42;;;;;;;60.70;32.03;;;11.10;99.90;;;;;;5050379;28;20300;-60
2022/03/29 05:13:09;;;;;;;66.53;33.53;;;11.20;99.90;;;;;;5055210;28;20208;-61
2022/03/29 05:15:35;;;;;;;62.80;33.10;;;11.20;99.90;;;;;;5049984;28;20213;-60
2022/03/29 05:18:02;;;;;;;59.77;31.60;;;11.30;99.90;;;;;;5054378;28;20548;-60
2022/03/29 05:20:28;;;;;;;58.27;31.50;;;11.30;99.90;;;;;;5065495;28;20196;-60
2022/03/29 05:22:57;;;;;;;67.87;32.77;;;11.30;99.90;;;;;;5049960;28;20177;-60
2022/03/29 05:25:25;;;;;;;60.07;32.37;;;11.40;99.90;;;;;;5050203;28;20200;-61
2022/03/29 05:27:52;;;;;;;63.50;32.70;;;11.40;99.90;;;;;;5050035;28;20196;-60
2022/03/29 05:30:20;;;;;;;62.17;31.20;;;11.40;99.90;;;;;;5049871;28;20176;-60
2022/03/29 05:32:47;;;;;;;62.83;32.77;;;11.50;99.90;;;;;;5049937;28;20180;-60
2022/03/29 05:35:13;;;;;;;65.03;32.77;;;11.40;99.90;;;;;;5054788;28;20264;-61
2022/03/29 05:37:41;;;;;;;68.30;33.60;;;11.40;99.90;;;;;;5062423;28;20239;-61
2022/03/29 05:40:10;;;;;;;63.33;32.47;;;11.40;99.90;;;;;;5058430;28;20164;-61
2022/03/29 05:42:44;;;;;;;58.70;31.93;;;11.40;99.90;;;;;;5069657;28;20646;-61
2022/03/29 05:45:12;;;;;;;60.37;31.07;;;11.30;99.90;;;;;;5068935;28;20175;-61
2022/03/29 05:50:23;;;;;;;61.83;33.80;;;11.40;99.90;;;;;;5070266;28;20219;-61
2022/03/29 05:52:49;;;;;;;59.73;32.67;;;11.40;99.90;;;;;;5064861;28;20208;-62
2022/03/29 05:55:15;;;;;;;62.77;32.70;;;11.30;99.90;;;;;;5059824;28;20196;-61
2022/03/29 05:57:41;;;;;;;65.23;33.23;;;11.30;99.90;;;;;;5068329;28;20314;-65
2022/03/29 06:00:11;;;;;;;65.73;32.87;;;11.30;99.90;;;;;;5054009;28;20173;-61
2022/03/29 06:02:38;;;;;;;61.83;32.80;;;11.30;99.90;;;;;;5049797;28;20177;-61
2022/03/29 06:05:05;;;;;;;66.83;33.63;;;11.30;99.90;;;;;;5056273;28;20255;-61
2022/03/29 06:07:30;;;;;;;65.20;33.87;;;11.30;99.90;;;;;;5069391;28;20199;-61
2022/03/29 06:09:56;;;;;;;62.33;32.00;;;11.40;99.90;;;;;;5054164;28;20616;-61
2022/03/29 06:12:22;;;;;;;67.27;33.67;;;11.40;99.90;;;;;;5050191;28;20614;-61
2022/03/29 06:14:49;;;;;;;65.50;32.93;;;11.30;99.90;;;;;;5053609;28;20316;-61
2022/03/29 06:17:15;;;;;;;61.50;31.90;;;11.30;99.90;;;;;;5064292;28;20176;-61
2022/03/29 06:19:42;;;;;;;64.50;32.70;;;11.40;99.90;;;;;;5069438;28;20175;-62
2022/03/29 06:22:08;;;;;;;64.00;32.93;;;11.40;99.90;;;;;;5066367;28;20649;-61
2022/03/29 06:24:33;;;;;;;63.30;32.40;;;11.30;99.90;;;;;;5031847;28;20204;-61
2022/03/29 06:26:59;;;;;;;58.10;31.80;;;11.30;99.90;;;;;;5049456;28;20659;-61
2022/03/29 06:29:26;;;;;;;64.70;33.40;;;11.30;99.90;;;;;;5049646;28;20308;-62
2022/03/29 06:31:52;;;;;;;61.07;31.23;;;11.40;99.90;;;;;;5072488;28;20264;-62
2022/03/29 06:34:17;;;;;;;64.80;30.57;;;11.40;99.90;;;;;;5053456;28;20271;-61
2022/03/29 06:36:44;;;;;;;60.13;31.40;;;11.40;99.90;;;;;;5072857;28;20184;-60
2022/03/29 06:39:12;;;;;;;66.03;32.67;;;11.40;99.90;;;;;;5065374;28;20272;-61
2022/03/29 06:41:38;;;;;;;56.23;30.90;;;11.40;99.90;;;;;;5055827;28;20172;-60
2022/03/29 06:44:07;;;;;;;68.57;32.27;;;11.30;99.90;;;;;;5057600;28;20177;-66
2022/03/29 06:46:34;;;;;;;63.73;31.43;;;11.40;99.90;;;;;;5065965;28;20168;-67
2022/03/29 06:49:02;;;;;;;62.20;30.97;;;11.30;99.90;;;;;;5067257;28;20205;-66
2022/03/29 06:51:29;;;;;;;56.80;29.93;;;11.40;99.90;;;;;;5063945;28;21725;-67
2022/03/29 06:53:55;;;;;;;64.63;30.60;;;11.40;99.90;;;;;;5067690;28;20189;-66
2022/03/29 06:56:21;;;;;;;64.47;30.87;;;11.40;99.90;;;;;;5061703;28;20177;-68
2022/03/29 06:58:47;;;;;;;54.80;29.47;;;11.40;99.90;;;;;;5054617;28;20535;-67
2022/03/29 07:01:12;;;;;;;55.47;28.57;;;11.40;99.90;;;;;;5071609;28;20584;-71
2022/03/29 07:03:39;;;;;;;55.87;28.23;;;11.40;99.90;;;;;;5071502;28;20514;-70
2022/03/29 07:06:05;;;;;;;52.90;27.40;;;11.40;99.90;;;;;;5067604;28;20198;-70
2022/03/29 07:08:32;;;;;;;62.97;29.20;;;11.40;99.90;;;;;;5070687;28;20208;-71
2022/03/29 07:11:19;;;;;;;54.20;28.80;;;11.40;99.90;;;;;;5059230;28;20920;-71
2022/03/29 07:13:45;;;;;;;51.93;28.30;;;11.50;99.90;;;;;;5057128;28;20173;-71
2022/03/29 07:16:16;;;;;;;52.83;27.17;;;11.50;99.90;;;;;;5034276;28;20553;-70
2022/03/29 07:18:42;;;;;;;55.03;28.10;;;11.50;99.90;;;;;;5052372;28;20537;-70
2022/03/29 07:21:10;;;;;;;55.60;27.03;;;11.50;99.90;;;;;;5066219;28;20699;-69
2022/03/29 07:23:36;;;;;;;58.10;26.83;;;11.60;99.90;;;;;;5072155;28;20164;-70
2022/03/29 07:26:03;;;;;;;54.37;26.10;;;11.50;99.90;;;;;;5072125;28;20172;-69
2022/03/29 07:28:29;;;;;;;52.80;27.37;;;11.50;99.90;;;;;;5072101;28;20647;-71
2022/03/29 07:30:55;;;;;;;51.30;26.57;;;11.60;99.90;;;;;;5071218;28;20172;-71
2022/03/29 07:33:21;;;;;;;55.30;26.03;;;11.60;99.90;;;;;;5072159;28;20187;-70
2022/03/29 07:35:47;;;;;;;50.15;26.50;;;11.60;99.90;;;;;;5072224;28;20250;-71
2022/03/29 07:38:13;;;;;;;60.07;27.17;;;11.60;99.90;;;;;;5054029;28;20176;-70
2022/03/29 07:40:40;;;;;;;56.60;26.17;;;11.70;99.90;;;;;;5072033;28;20906;-70
2022/03/29 07:43:08;;;;;;;59.47;26.20;;;11.70;99.90;;;;;;5071842;28;20218;-70
2022/03/29 07:45:34;;;;;;;53.08;27.08;;;11.70;99.90;;;;;;5071835;28;20366;-70
2022/03/29 07:48:03;;;;;;;50.63;26.48;;;11.70;99.90;;;;;;5069963;28;20356;-71
2022/03/29 07:50:30;;;;;;;55.08;26.75;;;11.70;99.90;;;;;;5053740;28;20237;-71
2022/03/29 07:52:59;;;;;;;53.65;26.90;;;11.70;99.90;;;;;;5063303;28;20256;-71
2022/03/29 07:55:25;;;;;;;54.13;27.47;;;11.80;99.90;;;;;;5054332;28;20169;-64
2022/03/29 07:57:51;;;;;;;52.03;27.23;;;11.80;99.90;;;;;;5065314;28;20169;-77
2022/03/29 08:00:33;;;;;;;54.80;25.90;;;11.90;99.90;;;;;;5072252;28;20169;-75
2022/03/29 08:03:10;;;;;;;52.28;25.95;;;11.80;99.90;;;;;;5058842;28;20248;-76
2022/03/29 08:05:39;;;;;;;49.07;25.00;;;11.90;99.90;;;;;;5056683;28;20651;-75
2022/03/29 08:08:05;;;;;;;43.83;23.70;;;11.90;99.90;;;;;;5070067;28;20223;-75
2022/03/29 08:10:32;;;;;;;44.83;24.23;;;12.00;99.90;;;;;;5066371;28;20196;-77
2022/03/29 08:13:00;;;;;;;50.40;25.13;;;12.10;99.90;;;;;;5055339;28;20180;-76
2022/03/29 08:15:28;;;;;;;42.63;22.47;;;12.20;99.90;;;;;;5062792;28;20281;-78
2022/03/29 08:17:59;;;;;;;45.67;23.80;;;12.20;99.90;;;;;;5070806;28;20306;-77
2022/03/29 08:20:25;;;;;;;51.13;25.00;;;12.30;99.90;;;;;;5071404;28;20176;-77
2022/03/29 08:22:53;;;;;;;41.27;22.50;;;12.20;99.90;;;;;;5072102;28;20173;-77
2022/03/29 08:25:21;;;;;;;47.05;23.10;;;12.30;99.90;;;;;;5071517;28;20177;-70
2022/03/29 08:27:49;;;;;;;42.08;21.88;;;12.40;99.90;;;;;;5071237;28;20160;-70
2022/03/29 08:30:15;;;;;;;44.58;20.77;;;12.40;99.90;;;;;;5070329;28;20181;-70
2022/03/29 08:32:42;;;;;;;43.83;21.52;;;12.40;99.90;;;;;;5071188;28;20169;-69
2022/03/29 08:35:11;;;;;;;39.50;21.35;;;12.50;99.90;;;;;;5071180;28;20655;-67
2022/03/29 08:37:37;;;;;;;47.05;22.98;;;12.50;99.90;;;;;;5062007;28;20177;-68
2022/03/29 08:40:05;;;;;;;41.13;22.25;;;12.60;99.90;;;;;;5050986;28;20173;-67
2022/03/29 08:42:31;;;;;;;40.33;20.92;;;12.60;99.90;;;;;;5050716;28;20162;-63
2022/03/29 08:45:05;;;;;;;42.47;21.40;;;12.60;99.90;;;;;;5050607;28;20786;-66
2022/03/29 08:47:31;;;;;;;41.27;21.63;;;12.60;99.90;;;;;;5050606;28;20162;-63
2022/03/29 08:49:58;;;;;;;40.67;20.80;;;12.60;99.90;;;;;;5050781;28;20244;-63
2022/03/29 08:52:24;;;;;;;42.40;20.70;;;12.50;99.90;;;;;;5051191;28;20252;-66
2022/03/29 08:54:50;;;;;;;38.53;20.08;;;12.50;99.90;;;;;;5059979;28;20646;-66
2022/03/29 08:57:16;;;;;;;40.13;20.92;;;12.30;99.90;;;;;;5053399;28;20173;-66
2022/03/29 08:59:42;;;;;;;39.25;21.02;;;12.30;99.90;;;;;;5050300;28;20260;-67
2022/03/29 09:02:11;;;;;;;40.42;21.15;;;12.40;99.90;;;;;;5057475;28;20248;-66
2022/03/29 09:04:37;;;;;;;43.45;20.23;;;12.50;99.90;;;;;;5070505;28;20176;-67
2022/03/29 09:07:03;;;;;;;42.50;22.50;;;12.40;99.90;;;;;;5066891;28;20191;-66
2022/03/29 09:09:36;;;;;;;39.92;21.33;;;12.30;99.90;;;;;;5068610;28;20196;-66
2022/03/29 09:12:14;;;;;;;47.13;22.43;;;12.40;99.90;;;;;;5070097;28;20869;-67
2022/03/29 09:15:00;;;;;;;42.22;21.02;;;12.50;99.90;;;;;;5070173;28;20212;-67
2022/03/29 09:17:31;;;;;;;37.80;20.00;;;12.50;99.90;;;;;;5068010;28;20670;-67
2022/03/29 09:19:58;;;;;;;47.30;21.83;;;12.50;99.90;;;;;;5069758;28;20168;-67
2022/03/29 09:23:03;;;;;;;37.37;20.63;;;12.50;99.90;;;;;;5069988;28;20168;-66
2022/03/29 09:25:46;;;;;;;38.92;20.58;;;12.60;99.90;;;;;;5008249;28;20276;-67
2022/03/29 09:28:14;;;;;;;38.70;20.70;;;12.60;99.90;;;;;;5008071;28;20730;-66
2022/03/29 09:30:48;;;;;;;36.38;19.90;;;12.60;99.90;;;;;;5045808;28;20206;-68
2022/03/29 09:33:20;;;;;;;41.50;20.85;;;12.60;99.90;;;;;;5070336;28;20273;-67
2022/03/29 09:35:59;;;;;;;37.08;20.42;;;12.60;99.90;;;;;;5058401;28;20177;-67
2022/03/29 09:38:30;;;;;;;43.00;20.80;;;12.60;99.90;;;;;;5049966;28;20290;-67
2022/03/29 09:40:58;;;;;;;41.58;21.33;;;12.60;99.90;;;;;;5049941;28;20325;-67
2022/03/29 09:43:26;;;;;;;38.88;20.40;;;12.60;99.90;;;;;;5049834;28;20188;-67
2022/03/29 09:45:55;;;;;;;39.17;19.92;;;12.60;99.90;;;;;;5057404;28;20165;-61
2022/03/29 09:48:37;;;;;;;41.15;19.95;;;12.60;99.90;;;;;;5069458;28;20689;-62
2022/03/29 09:51:14;;;;;;;42.40;19.73;;;12.60;99.90;;;;;;5069886;28;20172;-63
2022/03/29 09:53:51;;;;;;;38.22;19.35;;;12.50;99.90;;;;;;5069718;28;20172;-62
2022/03/29 09:56:21;;;;;;;39.03;18.63;;;12.40;99.90;;;;;;5066575;28;20191;-62
2022/03/29 09:59:08;;;;;;;36.83;18.00;;;12.20;99.90;;;;;;5051344;28;20195;-61
2022/03/29 10:01:57;;;;;;;32.47;17.13;;;12.20;99.90;;;;;;5069883;28;20196;-62
2022/03/29 10:04:25;;;;;;;33.47;16.90;;;12.20;99.90;;;;;;5069500;28;20315;-62
2022/03/29 10:06:57;;;;;;;33.37;16.53;;;12.40;99.90;;;;;;5073668;28;20168;-61
2022/03/29 10:09:32;;;;;;;35.33;17.33;;;12.40;99.90;;;;;;5073186;28;20554;-62
2022/03/29 10:12:05;;;;;;;29.07;16.13;;;12.30;99.90;;;;;;5062398;28;20627;-61
2022/03/29 10:14:43;;;;;;;29.55;16.33;;;12.30;99.90;;;;;;5073345;28;20714;-62
2022/03/29 10:17:09;;;;;;;31.77;16.37;;;12.30;99.90;;;;;;5059595;28;20230;-62
2022/03/29 10:19:37;;;;;;;26.88;15.90;;;12.30;99.90;;;;;;5053469;28;20230;-62
2022/03/29 10:22:04;;;;;;;27.40;14.63;;;12.40;99.90;;;;;;5053371;28;20173;-62
2022/03/29 10:24:30;;;;;;;31.45;14.65;;;12.30;99.90;;;;;;5067601;28;20230;-62
2022/03/29 10:27:01;;;;;;;25.52;15.02;;;12.40;99.90;;;;;;5055070;28;20180;-62
2022/03/29 10:29:29;;;;;;;29.83;15.18;;;12.40;99.90;;;;;;5069153;28;20235;-61
2022/03/29 10:32:01;;;;;;;31.13;15.87;;;12.20;99.90;;;;;;5064101;28;20176;-61
2022/03/29 10:34:30;;;;;;;29.67;14.90;;;12.20;99.90;;;;;;5053284;28;20257;-61
2022/03/29 10:37:09;;;;;;;27.23;14.43;;;12.30;99.90;;;;;;5069024;28;20564;-61
2022/03/29 10:39:53;;;;;;;30.33;14.90;;;12.30;99.90;;;;;;5069750;28;20596;-61
2022/03/29 10:42:30;;;;;;;30.83;15.77;;;12.40;99.90;;;;;;5072926;28;20188;-61
2022/03/29 10:45:07;;;;;;;34.67;15.10;;;12.50;99.90;;;;;;5072990;28;20551;-61
2022/03/29 10:47:34;;;;;;;30.20;14.27;;;12.50;99.90;;;;;;5071319;28;20510;-61
2022/03/29 10:50:01;;;;;;;29.33;15.37;;;12.90;99.90;;;;;;5072842;28;20291;-61
2022/03/29 10:52:29;;;;;;;30.05;15.68;;;12.60;99.90;;;;;;5072749;28;20180;-61
2022/03/29 10:55:15;;;;;;;33.97;15.63;;;12.60;99.90;;;;;;5072479;28;20165;-62
2022/03/29 10:57:41;;;;;;;31.33;15.27;;;12.60;99.90;;;;;;5071491;28;20219;-61
2022/03/29 11:00:06;;;;;;;32.00;16.67;;;12.60;99.90;;;;;;5072039;28;20172;-61
2022/03/29 11:02:33;;;;;;;32.40;16.80;;;12.70;99.90;;;;;;5072709;28;20199;-61
2022/03/29 11:05:05;;;;;;;33.03;17.00;;;12.80;99.90;;;;;;5068634;28;20291;-61
2022/03/29 11:07:40;;;;;;;31.38;16.10;;;12.90;99.90;;;;;;5072104;28;20203;-61
2022/03/29 11:10:10;;;;;;;29.40;16.33;;;12.90;99.90;;;;;;5072567;28;20183;-61
2022/03/29 11:12:43;;;;;;;34.92;16.30;;;12.90;99.90;;;;;;5072443;28;20255;-61
2022/03/29 11:15:36;;;;;;;34.17;18.00;;;12.80;99.90;;;;;;5064490;28;20221;-61
2022/03/29 11:18:06;;;;;;;30.90;16.70;;;12.90;99.90;;;;;;5070438;28;20251;-61
2022/03/29 11:20:34;;;;;;;31.83;16.98;;;13.00;99.90;;;;;;5072296;28;20169;-61
2022/03/29 11:23:11;;;;;;;30.33;16.10;;;13.10;99.90;;;;;;5056443;28;20211;-60
2022/03/29 11:25:42;;;;;;;34.75;16.35;;;13.10;99.90;;;;;;5036208;28;20184;-59
2022/03/29 11:28:11;;;;;;;29.52;16.63;;;13.20;99.90;;;;;;5052218;28;20205;-61
2022/03/29 11:30:37;;;;;;;31.13;16.77;;;13.20;99.90;;;;;;5052092;28;20249;-60
2022/03/29 11:33:05;;;;;;;32.58;16.52;;;13.30;99.90;;;;;;5052069;28;20252;-61
2022/03/29 11:35:32;;;;;;;29.55;15.73;;;13.30;99.90;;;;;;5052082;28;20172;-61
2022/03/29 11:38:11;;;;;;;28.40;15.93;;;13.40;99.90;;;;;;5051907;28;20177;-61
2022/03/29 11:40:37;;;;;;;31.42;16.48;;;13.40;99.90;;;;;;5052037;28;20162;-60
2022/03/29 11:43:11;;;;;;;26.65;16.40;;;13.30;99.90;;;;;;5040980;28;20196;-60
2022/03/29 11:45:56;;;;;;;31.08;16.83;;;13.40;99.90;;;;;;5053698;28;20271;-60
2022/03/29 11:48:25;;;;;;;28.42;15.85;;;13.30;99.90;;;;;;5071505;28;20196;-60
2022/03/29 11:50:53;;;;;;;27.88;15.07;;;13.30;99.90;;;;;;5070787;28;20268;-62
2022/03/29 11:53:33;;;;;;;30.70;15.70;;;13.50;99.90;;;;;;5071672;28;20180;-61
2022/03/29 11:56:08;;;;;;;33.15;14.98;;;13.50;99.90;;;;;;5071626;28;20199;-61
2022/03/29 11:58:38;;;;;;;26.50;15.70;;;13.50;99.90;;;;;;5071036;28;20186;-61
2022/03/29 12:01:11;;;;;;;29.58;15.35;;;13.50;99.90;;;;;;5051722;28;20650;-61
2022/03/29 12:03:48;;;;;;;31.80;15.57;;;13.50;99.90;;;;;;5051329;28;20185;-61
2022/03/29 12:06:19;;;;;;;26.70;14.95;;;13.60;99.90;;;;;;5051702;28;20652;-62
2022/03/29 12:08:54;;;;;;;27.42;15.43;;;13.50;99.90;;;;;;5062952;28;20204;-61
2022/03/29 12:11:22;;;;;;;28.27;15.43;;;13.40;99.90;;;;;;5067709;28;20213;-61
2022/03/29 12:13:59;;;;;;;26.70;15.85;;;13.40;99.90;;;;;;5061028;28;20173;-61
2022/03/29 12:16:27;;;;;;;28.25;15.65;;;13.50;99.90;;;;;;5055979;28;20524;-61
2022/03/29 12:18:53;;;;;;;25.52;14.80;;;13.40;99.90;;;;;;5066351;28;20191;-61
2022/03/29 12:21:22;;;;;;;29.95;15.65;;;13.40;99.90;;;;;;5067998;28;20520;-61
2022/03/29 12:23:49;;;;;;;31.13;16.02;;;13.40;99.90;;;;;;5070630;28;20283;-61
2022/03/29 12:26:18;;;;;;;29.83;15.80;;;13.40;99.90;;;;;;5071087;28;20161;-61
2022/03/29 12:28:46;;;;;;;31.05;15.45;;;13.30;99.90;;;;;;5069964;28;20207;-61
2022/03/29 12:31:13;;;;;;;29.63;15.75;;;13.40;99.90;;;;;;5052779;28;20169;-61
2022/03/29 12:33:40;;;;;;;30.45;16.20;;;13.30;99.90;;;;;;5070922;28;20179;-61
2022/03/29 12:36:13;;;;;;;29.58;16.15;;;13.40;99.90;;;;;;5060836;28;20666;-61
2022/03/29 12:38:45;;;;;;;31.75;16.88;;;13.30;99.90;;;;;;5050777;28;20229;-61
2022/03/29 12:41:13;;;;;;;30.02;16.60;;;13.40;99.90;;;;;;5067675;28;20179;-61